sensor_id;sensor_type;location;lat;lon;timestamp;P1;durP1;ratioP1;P2;durP2;ratioP2
4563;SDS011;2294;51.818;8.484;2022-07-21T00:00:56;9.30;;;6.93;;
4563;SDS011;2294;51.818;8.484;2022-07-21T00:03:23;11.07;;;6.60;;
4563;SDS011;2294;51.818;8.484;2022-07-21T00:05:50;7.87;;;5.57;;
4563;SDS011;2294;51.818;8.484;2022-07-21T00:08:17;8.90;;;6.30;;
4563;SDS011;2294;51.818;8.484;2022-07-21T00:10:44;11.43;;;6.20;;
4563;SDS011;2294;51.818;8.484;2022-07-21T00:13:11;7.53;;;6.03;;
4563;SDS011;2294;51.818;8.484;2022-07-21T00:15:39;12.60;;;6.40;;
4563;SDS011;2294;51.818;8.484;2022-07-21T00:18:06;10.00;;;7.10;;
4563;SDS011;2294;51.818;8.484;2022-07-21T00:20:33;7.00;;;5.67;;
4563;SDS011;2294;51.818;8.484;2022-07-21T00:23:00;6.43;;;5.70;;
4563;SDS011;2294;51.818;8.484;2022-07-21T00:25:27;9.73;;;5.63;;
4563;SDS011;2294;51.818;8.484;2022-07-21T00:27:54;9.33;;;6.30;;
4563;SDS011;2294;51.818;8.484;2022-07-21T00:30:21;16.73;;;6.50;;
4563;SDS011;2294;51.818;8.484;2022-07-21T00:32:50;10.70;;;5.33;;
4563;SDS011;2294;51.818;8.484;2022-07-21T00:35:17;12.27;;;5.40;;
4563;SDS011;2294;51.818;8.484;2022-07-21T00:37:43;11.50;;;7.07;;
4563;SDS011;2294;51.818;8.484;2022-07-21T00:40:11;10.67;;;6.57;;
4563;SDS011;2294;51.818;8.484;2022-07-21T00:42:40;10.43;;;6.47;;
4563;SDS011;2294;51.818;8.484;2022-07-21T00:45:08;10.10;;;6.70;;
4563;SDS011;2294;51.818;8.484;2022-07-21T00:47:36;12.07;;;6.70;;
4563;SDS011;2294;51.818;8.484;2022-07-21T00:50:06;11.27;;;7.70;;
4563;SDS011;2294;51.818;8.484;2022-07-21T00:52:35;9.53;;;8.00;;
4563;SDS011;2294;51.818;8.484;2022-07-21T00:55:02;12.23;;;7.23;;
4563;SDS011;2294;51.818;8.484;2022-07-21T00:57:30;13.70;;;8.33;;
4563;SDS011;2294;51.818;8.484;2022-07-21T00:59:57;11.17;;;7.37;;
4563;SDS011;2294;51.818;8.484;2022-07-21T01:02:24;10.80;;;6.87;;
4563;SDS011;2294;51.818;8.484;2022-07-21T01:04:51;7.97;;;6.87;;
4563;SDS011;2294;51.818;8.484;2022-07-21T01:07:20;12.83;;;7.17;;
4563;SDS011;2294;51.818;8.484;2022-07-21T01:09:47;12.27;;;6.87;;
4563;SDS011;2294;51.818;8.484;2022-07-21T01:12:14;15.03;;;7.13;;
4563;SDS011;2294;51.818;8.484;2022-07-21T01:14:41;11.30;;;7.87;;
4563;SDS011;2294;51.818;8.484;2022-07-21T01:17:08;10.27;;;6.90;;
4563;SDS011;2294;51.818;8.484;2022-07-21T01:19:35;10.80;;;7.30;;
4563;SDS011;2294;51.818;8.484;2022-07-21T01:22:04;7.80;;;6.20;;
4563;SDS011;2294;51.818;8.484;2022-07-21T01:24:32;10.37;;;7.27;;
4563;SDS011;2294;51.818;8.484;2022-07-21T01:26:59;10.37;;;8.00;;
4563;SDS011;2294;51.818;8.484;2022-07-21T01:29:25;15.23;;;7.80;;
4563;SDS011;2294;51.818;8.484;2022-07-21T01:31:52;9.40;;;7.73;;
4563;SDS011;2294;51.818;8.484;2022-07-21T01:34:20;11.07;;;7.63;;
4563;SDS011;2294;51.818;8.484;2022-07-21T01:36:47;13.50;;;7.80;;
4563;SDS011;2294;51.818;8.484;2022-07-21T01:39:15;9.17;;;7.20;;
4563;SDS011;2294;51.818;8.484;2022-07-21T01:42:00;8.83;;;6.63;;
4563;SDS011;2294;51.818;8.484;2022-07-21T01:44:27;9.87;;;7.70;;
4563;SDS011;2294;51.818;8.484;2022-07-21T01:46:54;13.10;;;8.10;;
4563;SDS011;2294;51.818;8.484;2022-07-21T01:49:21;13.20;;;7.40;;
4563;SDS011;2294;51.818;8.484;2022-07-21T01:51:48;11.00;;;7.73;;
4563;SDS011;2294;51.818;8.484;2022-07-21T01:54:17;13.20;;;7.60;;
4563;SDS011;2294;51.818;8.484;2022-07-21T01:56:44;9.67;;;7.57;;
4563;SDS011;2294;51.818;8.484;2022-07-21T01:59:11;13.80;;;8.90;;
4563;SDS011;2294;51.818;8.484;2022-07-21T02:01:38;10.67;;;8.30;;
4563;SDS011;2294;51.818;8.484;2022-07-21T02:04:05;12.67;;;7.63;;
4563;SDS011;2294;51.818;8.484;2022-07-21T02:06:32;9.20;;;8.17;;
4563;SDS011;2294;51.818;8.484;2022-07-21T02:08:59;9.40;;;7.43;;
4563;SDS011;2294;51.818;8.484;2022-07-21T02:11:28;13.60;;;7.97;;
4563;SDS011;2294;51.818;8.484;2022-07-21T02:13:55;11.43;;;8.40;;
4563;SDS011;2294;51.818;8.484;2022-07-21T02:16:22;16.17;;;9.30;;
4563;SDS011;2294;51.818;8.484;2022-07-21T02:18:49;12.90;;;10.30;;
4563;SDS011;2294;51.818;8.484;2022-07-21T02:21:16;12.73;;;11.43;;
4563;SDS011;2294;51.818;8.484;2022-07-21T02:23:43;13.93;;;11.07;;
4563;SDS011;2294;51.818;8.484;2022-07-21T02:26:10;14.57;;;11.50;;
4563;SDS011;2294;51.818;8.484;2022-07-21T02:28:39;12.80;;;10.83;;
4563;SDS011;2294;51.818;8.484;2022-07-21T02:31:06;13.17;;;10.50;;
4563;SDS011;2294;51.818;8.484;2022-07-21T02:33:33;16.00;;;10.83;;
4563;SDS011;2294;51.818;8.484;2022-07-21T02:36:01;12.37;;;10.43;;
4563;SDS011;2294;51.818;8.484;2022-07-21T02:38:28;12.50;;;10.13;;
4563;SDS011;2294;51.818;8.484;2022-07-21T02:40:55;18.70;;;13.13;;
4563;SDS011;2294;51.818;8.484;2022-07-21T02:43:22;17.77;;;14.90;;
4563;SDS011;2294;51.818;8.484;2022-07-21T02:45:50;21.20;;;15.93;;
4563;SDS011;2294;51.818;8.484;2022-07-21T02:48:18;19.47;;;15.40;;
4563;SDS011;2294;51.818;8.484;2022-07-21T02:50:45;24.57;;;14.73;;
4563;SDS011;2294;51.818;8.484;2022-07-21T02:53:12;16.70;;;12.30;;
4563;SDS011;2294;51.818;8.484;2022-07-21T02:55:43;19.53;;;13.50;;
4563;SDS011;2294;51.818;8.484;2022-07-21T02:58:11;20.50;;;13.97;;
4563;SDS011;2294;51.818;8.484;2022-07-21T03:00:41;19.70;;;15.30;;
4563;SDS011;2294;51.818;8.484;2022-07-21T03:03:10;20.30;;;13.63;;
4563;SDS011;2294;51.818;8.484;2022-07-21T03:05:37;17.87;;;13.87;;
4563;SDS011;2294;51.818;8.484;2022-07-21T03:08:05;17.93;;;14.30;;
4563;SDS011;2294;51.818;8.484;2022-07-21T03:10:33;41.30;;;17.00;;
4563;SDS011;2294;51.818;8.484;2022-07-21T03:13:00;21.57;;;16.10;;
4563;SDS011;2294;51.818;8.484;2022-07-21T03:15:27;19.17;;;16.00;;
4563;SDS011;2294;51.818;8.484;2022-07-21T03:17:55;23.10;;;14.03;;
4563;SDS011;2294;51.818;8.484;2022-07-21T03:20:24;19.53;;;14.17;;
4563;SDS011;2294;51.818;8.484;2022-07-21T03:22:51;24.00;;;13.63;;
4563;SDS011;2294;51.818;8.484;2022-07-21T03:25:18;20.73;;;13.00;;
4563;SDS011;2294;51.818;8.484;2022-07-21T03:27:45;15.03;;;12.63;;
4563;SDS011;2294;51.818;8.484;2022-07-21T03:30:13;19.70;;;13.83;;
4563;SDS011;2294;51.818;8.484;2022-07-21T03:32:40;18.67;;;13.47;;
4563;SDS011;2294;51.818;8.484;2022-07-21T03:35:09;21.80;;;13.30;;
4563;SDS011;2294;51.818;8.484;2022-07-21T03:37:42;14.63;;;10.80;;
4563;SDS011;2294;51.818;8.484;2022-07-21T03:40:11;16.33;;;11.70;;
4563;SDS011;2294;51.818;8.484;2022-07-21T03:42:39;15.70;;;11.70;;
4563;SDS011;2294;51.818;8.484;2022-07-21T03:45:07;16.53;;;12.00;;
4563;SDS011;2294;51.818;8.484;2022-07-21T03:47:35;15.03;;;11.27;;
4563;SDS011;2294;51.818;8.484;2022-07-21T03:50:02;17.70;;;13.40;;
4563;SDS011;2294;51.818;8.484;2022-07-21T03:52:30;15.07;;;11.60;;
4563;SDS011;2294;51.818;8.484;2022-07-21T03:54:58;12.93;;;11.33;;
4563;SDS011;2294;51.818;8.484;2022-07-21T03:57:34;21.10;;;12.60;;
4563;SDS011;2294;51.818;8.484;2022-07-21T04:00:03;17.07;;;11.93;;
4563;SDS011;2294;51.818;8.484;2022-07-21T04:02:32;19.17;;;12.07;;
4563;SDS011;2294;51.818;8.484;2022-07-21T04:04:59;12.93;;;10.40;;
4563;SDS011;2294;51.818;8.484;2022-07-21T04:07:26;14.50;;;9.57;;
4563;SDS011;2294;51.818;8.484;2022-07-21T04:09:53;13.10;;;8.90;;
4563;SDS011;2294;51.818;8.484;2022-07-21T04:12:25;12.17;;;9.30;;
4563;SDS011;2294;51.818;8.484;2022-07-21T04:14:52;19.30;;;11.60;;
4563;SDS011;2294;51.818;8.484;2022-07-21T04:17:20;12.90;;;10.40;;
4563;SDS011;2294;51.818;8.484;2022-07-21T04:19:47;14.70;;;11.23;;
4563;SDS011;2294;51.818;8.484;2022-07-21T04:22:14;20.80;;;10.77;;
4563;SDS011;2294;51.818;8.484;2022-07-21T04:24:41;15.33;;;11.17;;
4563;SDS011;2294;51.818;8.484;2022-07-21T04:27:08;13.50;;;9.93;;
4563;SDS011;2294;51.818;8.484;2022-07-21T04:29:36;16.47;;;11.97;;
4563;SDS011;2294;51.818;8.484;2022-07-21T04:32:04;15.60;;;10.87;;
4563;SDS011;2294;51.818;8.484;2022-07-21T04:34:31;15.93;;;11.47;;
4563;SDS011;2294;51.818;8.484;2022-07-21T04:36:58;14.30;;;11.97;;
4563;SDS011;2294;51.818;8.484;2022-07-21T04:39:25;18.37;;;13.07;;
4563;SDS011;2294;51.818;8.484;2022-07-21T04:41:52;20.00;;;11.97;;
4563;SDS011;2294;51.818;8.484;2022-07-21T04:44:19;23.90;;;13.40;;
4563;SDS011;2294;51.818;8.484;2022-07-21T04:46:48;19.20;;;13.30;;
4563;SDS011;2294;51.818;8.484;2022-07-21T04:49:15;19.73;;;13.53;;
4563;SDS011;2294;51.818;8.484;2022-07-21T04:51:42;21.07;;;14.40;;
4563;SDS011;2294;51.818;8.484;2022-07-21T04:54:09;20.07;;;13.70;;
4563;SDS011;2294;51.818;8.484;2022-07-21T04:56:39;22.47;;;15.63;;
4563;SDS011;2294;51.818;8.484;2022-07-21T04:59:06;18.03;;;13.50;;
4563;SDS011;2294;51.818;8.484;2022-07-21T05:01:34;19.73;;;13.80;;
4563;SDS011;2294;51.818;8.484;2022-07-21T05:04:02;19.80;;;14.67;;
4563;SDS011;2294;51.818;8.484;2022-07-21T05:06:30;19.47;;;13.77;;
4563;SDS011;2294;51.818;8.484;2022-07-21T05:08:57;18.57;;;13.50;;
4563;SDS011;2294;51.818;8.484;2022-07-21T05:11:24;28.23;;;13.30;;
4563;SDS011;2294;51.818;8.484;2022-07-21T05:13:51;18.73;;;13.40;;
4563;SDS011;2294;51.818;8.484;2022-07-21T05:16:18;22.10;;;13.40;;
4563;SDS011;2294;51.818;8.484;2022-07-21T05:18:45;18.23;;;13.73;;
4563;SDS011;2294;51.818;8.484;2022-07-21T05:21:13;17.03;;;12.33;;
4563;SDS011;2294;51.818;8.484;2022-07-21T05:23:40;14.57;;;11.37;;
4563;SDS011;2294;51.818;8.484;2022-07-21T05:26:07;19.97;;;13.43;;
4563;SDS011;2294;51.818;8.484;2022-07-21T05:28:34;16.83;;;12.10;;
4563;SDS011;2294;51.818;8.484;2022-07-21T05:31:01;23.93;;;12.13;;
4563;SDS011;2294;51.818;8.484;2022-07-21T05:33:28;19.43;;;12.50;;
4563;SDS011;2294;51.818;8.484;2022-07-21T05:35:55;16.03;;;12.27;;
4563;SDS011;2294;51.818;8.484;2022-07-21T05:38:23;13.33;;;11.23;;
4563;SDS011;2294;51.818;8.484;2022-07-21T05:40:50;17.00;;;10.40;;
4563;SDS011;2294;51.818;8.484;2022-07-21T05:43:17;16.23;;;10.77;;
4563;SDS011;2294;51.818;8.484;2022-07-21T05:45:44;15.00;;;9.30;;
4563;SDS011;2294;51.818;8.484;2022-07-21T05:48:11;12.40;;;9.73;;
4563;SDS011;2294;51.818;8.484;2022-07-21T05:50:38;11.00;;;8.70;;
4563;SDS011;2294;51.818;8.484;2022-07-21T05:53:05;10.73;;;8.63;;
4563;SDS011;2294;51.818;8.484;2022-07-21T05:55:33;13.30;;;8.20;;
4563;SDS011;2294;51.818;8.484;2022-07-21T05:58:00;10.07;;;7.23;;
4563;SDS011;2294;51.818;8.484;2022-07-21T06:00:27;13.93;;;7.13;;
4563;SDS011;2294;51.818;8.484;2022-07-21T06:02:54;10.50;;;7.47;;
4563;SDS011;2294;51.818;8.484;2022-07-21T06:05:21;8.70;;;6.70;;
4563;SDS011;2294;51.818;8.484;2022-07-21T06:07:48;8.60;;;7.17;;
4563;SDS011;2294;51.818;8.484;2022-07-21T06:10:15;10.80;;;7.50;;
4563;SDS011;2294;51.818;8.484;2022-07-21T06:12:44;12.77;;;8.13;;
4563;SDS011;2294;51.818;8.484;2022-07-21T06:15:11;11.80;;;8.27;;
4563;SDS011;2294;51.818;8.484;2022-07-21T06:17:39;9.97;;;7.90;;
4563;SDS011;2294;51.818;8.484;2022-07-21T06:20:06;12.60;;;9.40;;
4563;SDS011;2294;51.818;8.484;2022-07-21T06:22:34;14.23;;;10.30;;
4563;SDS011;2294;51.818;8.484;2022-07-21T06:25:02;16.77;;;10.53;;
4563;SDS011;2294;51.818;8.484;2022-07-21T06:27:29;12.33;;;9.13;;
4563;SDS011;2294;51.818;8.484;2022-07-21T06:29:58;12.67;;;8.93;;
4563;SDS011;2294;51.818;8.484;2022-07-21T06:32:25;12.20;;;10.03;;
4563;SDS011;2294;51.818;8.484;2022-07-21T06:34:52;14.03;;;8.27;;
4563;SDS011;2294;51.818;8.484;2022-07-21T06:37:20;12.43;;;8.73;;
4563;SDS011;2294;51.818;8.484;2022-07-21T06:39:47;12.17;;;8.50;;
4563;SDS011;2294;51.818;8.484;2022-07-21T06:42:14;10.00;;;7.23;;
4563;SDS011;2294;51.818;8.484;2022-07-21T06:44:41;9.40;;;6.93;;
4563;SDS011;2294;51.818;8.484;2022-07-21T06:47:09;8.93;;;6.83;;
4563;SDS011;2294;51.818;8.484;2022-07-21T06:49:36;13.60;;;6.63;;
4563;SDS011;2294;51.818;8.484;2022-07-21T06:52:03;11.43;;;6.97;;
4563;SDS011;2294;51.818;8.484;2022-07-21T06:54:31;9.00;;;5.57;;
4563;SDS011;2294;51.818;8.484;2022-07-21T06:56:58;11.87;;;6.53;;
4563;SDS011;2294;51.818;8.484;2022-07-21T06:59:25;9.40;;;6.60;;
4563;SDS011;2294;51.818;8.484;2022-07-21T07:01:52;8.13;;;6.53;;
4563;SDS011;2294;51.818;8.484;2022-07-21T07:04:20;10.63;;;6.63;;
4563;SDS011;2294;51.818;8.484;2022-07-21T07:06:47;9.20;;;6.00;;
4563;SDS011;2294;51.818;8.484;2022-07-21T07:09:17;6.80;;;6.10;;
4563;SDS011;2294;51.818;8.484;2022-07-21T07:11:44;8.27;;;5.53;;
4563;SDS011;2294;51.818;8.484;2022-07-21T07:14:11;6.67;;;5.57;;
4563;SDS011;2294;51.818;8.484;2022-07-21T07:16:38;9.53;;;6.70;;
4563;SDS011;2294;51.818;8.484;2022-07-21T07:19:05;8.17;;;6.33;;
4563;SDS011;2294;51.818;8.484;2022-07-21T07:21:34;10.87;;;6.30;;
4563;SDS011;2294;51.818;8.484;2022-07-21T07:24:01;16.10;;;6.97;;
4563;SDS011;2294;51.818;8.484;2022-07-21T07:26:28;9.53;;;6.20;;
4563;SDS011;2294;51.818;8.484;2022-07-21T07:28:55;8.70;;;5.93;;
4563;SDS011;2294;51.818;8.484;2022-07-21T07:31:22;13.30;;;6.70;;
4563;SDS011;2294;51.818;8.484;2022-07-21T07:33:49;9.73;;;7.30;;
4563;SDS011;2294;51.818;8.484;2022-07-21T07:36:16;13.07;;;6.23;;
4563;SDS011;2294;51.818;8.484;2022-07-21T07:38:44;10.70;;;6.50;;
4563;SDS011;2294;51.818;8.484;2022-07-21T07:41:13;10.17;;;6.20;;
4563;SDS011;2294;51.818;8.484;2022-07-21T07:43:40;10.67;;;6.67;;
4563;SDS011;2294;51.818;8.484;2022-07-21T07:46:07;6.50;;;5.87;;
4563;SDS011;2294;51.818;8.484;2022-07-21T07:48:36;10.50;;;6.00;;
4563;SDS011;2294;51.818;8.484;2022-07-21T07:51:02;10.30;;;6.50;;
4563;SDS011;2294;51.818;8.484;2022-07-21T07:53:30;12.00;;;8.43;;
4563;SDS011;2294;51.818;8.484;2022-07-21T07:55:58;9.47;;;7.40;;
4563;SDS011;2294;51.818;8.484;2022-07-21T07:58:25;8.73;;;6.30;;
4563;SDS011;2294;51.818;8.484;2022-07-21T08:00:52;10.70;;;8.27;;
4563;SDS011;2294;51.818;8.484;2022-07-21T08:03:19;11.10;;;8.43;;
4563;SDS011;2294;51.818;8.484;2022-07-21T08:05:46;8.87;;;7.30;;
4563;SDS011;2294;51.818;8.484;2022-07-21T08:08:13;9.10;;;7.17;;
4563;SDS011;2294;51.818;8.484;2022-07-21T08:10:42;10.30;;;6.93;;
4563;SDS011;2294;51.818;8.484;2022-07-21T08:13:12;12.43;;;7.50;;
4563;SDS011;2294;51.818;8.484;2022-07-21T08:15:39;9.43;;;7.40;;
4563;SDS011;2294;51.818;8.484;2022-07-21T08:18:06;8.33;;;7.10;;
4563;SDS011;2294;51.818;8.484;2022-07-21T08:20:34;9.70;;;8.27;;
4563;SDS011;2294;51.818;8.484;2022-07-21T08:23:02;11.60;;;8.40;;
4563;SDS011;2294;51.818;8.484;2022-07-21T08:25:29;9.60;;;8.37;;
4563;SDS011;2294;51.818;8.484;2022-07-21T08:27:56;11.73;;;8.30;;
4563;SDS011;2294;51.818;8.484;2022-07-21T08:30:24;10.93;;;9.10;;
4563;SDS011;2294;51.818;8.484;2022-07-21T08:32:51;10.03;;;7.73;;
4563;SDS011;2294;51.818;8.484;2022-07-21T08:35:18;9.07;;;7.73;;
4563;SDS011;2294;51.818;8.484;2022-07-21T08:37:52;10.13;;;7.67;;
4563;SDS011;2294;51.818;8.484;2022-07-21T08:40:21;11.93;;;7.77;;
4563;SDS011;2294;51.818;8.484;2022-07-21T08:42:50;10.97;;;8.80;;
4563;SDS011;2294;51.818;8.484;2022-07-21T08:45:17;13.70;;;8.83;;
4563;SDS011;2294;51.818;8.484;2022-07-21T08:47:46;10.90;;;9.40;;
4563;SDS011;2294;51.818;8.484;2022-07-21T08:50:15;9.73;;;8.20;;
4563;SDS011;2294;51.818;8.484;2022-07-21T08:52:42;10.53;;;9.10;;
4563;SDS011;2294;51.818;8.484;2022-07-21T08:55:09;9.83;;;8.40;;
4563;SDS011;2294;51.818;8.484;2022-07-21T08:57:37;13.60;;;9.17;;
4563;SDS011;2294;51.818;8.484;2022-07-21T09:00:05;11.50;;;8.70;;
4563;SDS011;2294;51.818;8.484;2022-07-21T09:02:34;11.50;;;8.87;;
4563;SDS011;2294;51.818;8.484;2022-07-21T09:05:04;10.60;;;9.50;;
4563;SDS011;2294;51.818;8.484;2022-07-21T09:07:45;11.03;;;9.57;;
4563;SDS011;2294;51.818;8.484;2022-07-21T09:10:14;16.13;;;9.13;;
4563;SDS011;2294;51.818;8.484;2022-07-21T09:12:48;11.93;;;9.87;;
4563;SDS011;2294;51.818;8.484;2022-07-21T09:15:16;13.27;;;10.03;;
4563;SDS011;2294;51.818;8.484;2022-07-21T09:17:45;15.20;;;10.90;;
4563;SDS011;2294;51.818;8.484;2022-07-21T09:20:30;12.23;;;10.40;;
4563;SDS011;2294;51.818;8.484;2022-07-21T09:23:04;11.50;;;9.80;;
4563;SDS011;2294;51.818;8.484;2022-07-21T09:25:37;12.33;;;9.77;;
4563;SDS011;2294;51.818;8.484;2022-07-21T09:28:13;16.33;;;10.23;;
4563;SDS011;2294;51.818;8.484;2022-07-21T09:33:37;16.33;;;9.10;;
4563;SDS011;2294;51.818;8.484;2022-07-21T09:36:09;12.27;;;10.10;;
4563;SDS011;2294;51.818;8.484;2022-07-21T09:38:38;12.30;;;9.00;;
4563;SDS011;2294;51.818;8.484;2022-07-21T09:41:08;14.10;;;10.20;;
4563;SDS011;2294;51.818;8.484;2022-07-21T09:43:38;16.97;;;10.60;;
4563;SDS011;2294;51.818;8.484;2022-07-21T09:46:08;15.80;;;10.47;;
4563;SDS011;2294;51.818;8.484;2022-07-21T09:48:41;13.13;;;10.17;;
4563;SDS011;2294;51.818;8.484;2022-07-21T09:51:21;15.43;;;10.50;;
4563;SDS011;2294;51.818;8.484;2022-07-21T09:53:54;13.23;;;11.37;;
4563;SDS011;2294;51.818;8.484;2022-07-21T09:56:23;12.60;;;9.10;;
4563;SDS011;2294;51.818;8.484;2022-07-21T09:58:52;11.97;;;9.10;;
4563;SDS011;2294;51.818;8.484;2022-07-21T10:01:20;9.13;;;7.90;;
4563;SDS011;2294;51.818;8.484;2022-07-21T10:03:48;8.90;;;7.30;;
4563;SDS011;2294;51.818;8.484;2022-07-21T10:06:17;8.53;;;6.77;;
4563;SDS011;2294;51.818;8.484;2022-07-21T10:08:50;9.70;;;7.10;;
4563;SDS011;2294;51.818;8.484;2022-07-21T10:11:18;8.83;;;6.80;;
4563;SDS011;2294;51.818;8.484;2022-07-21T10:13:45;7.97;;;7.17;;
4563;SDS011;2294;51.818;8.484;2022-07-21T10:16:12;15.23;;;7.33;;
4563;SDS011;2294;51.818;8.484;2022-07-21T10:18:42;8.20;;;6.90;;
4563;SDS011;2294;51.818;8.484;2022-07-21T10:21:22;10.33;;;6.10;;
4563;SDS011;2294;51.818;8.484;2022-07-21T10:23:55;7.60;;;6.00;;
4563;SDS011;2294;51.818;8.484;2022-07-21T10:26:22;7.50;;;6.60;;
4563;SDS011;2294;51.818;8.484;2022-07-21T10:28:49;7.30;;;6.40;;
4563;SDS011;2294;51.818;8.484;2022-07-21T10:31:17;6.33;;;5.73;;
4563;SDS011;2294;51.818;8.484;2022-07-21T10:33:52;7.10;;;6.17;;
4563;SDS011;2294;51.818;8.484;2022-07-21T10:39:23;7.37;;;5.60;;
4563;SDS011;2294;51.818;8.484;2022-07-21T10:41:52;8.47;;;6.27;;
4563;SDS011;2294;51.818;8.484;2022-07-21T10:47:09;9.40;;;5.07;;
4563;SDS011;2294;51.818;8.484;2022-07-21T10:49:51;4.90;;;4.30;;
4563;SDS011;2294;51.818;8.484;2022-07-21T10:55:24;4.97;;;4.47;;
4563;SDS011;2294;51.818;8.484;2022-07-21T10:58:09;7.00;;;4.67;;
4563;SDS011;2294;51.818;8.484;2022-07-21T11:00:48;5.00;;;4.10;;
4563;SDS011;2294;51.818;8.484;2022-07-21T11:03:20;9.90;;;6.33;;
4563;SDS011;2294;51.818;8.484;2022-07-21T11:06:12;7.87;;;6.10;;
4563;SDS011;2294;51.818;8.484;2022-07-21T11:08:41;4.83;;;4.33;;
4563;SDS011;2294;51.818;8.484;2022-07-21T11:11:11;4.73;;;4.20;;
4563;SDS011;2294;51.818;8.484;2022-07-21T11:13:56;11.00;;;5.40;;
4563;SDS011;2294;51.818;8.484;2022-07-21T11:19:32;6.57;;;4.87;;
4563;SDS011;2294;51.818;8.484;2022-07-21T11:22:03;6.50;;;4.80;;
4563;SDS011;2294;51.818;8.484;2022-07-21T11:24:32;8.13;;;4.63;;
4563;SDS011;2294;51.818;8.484;2022-07-21T11:27:03;7.83;;;4.80;;
4563;SDS011;2294;51.818;8.484;2022-07-21T11:29:32;7.30;;;5.17;;
4563;SDS011;2294;51.818;8.484;2022-07-21T11:31:59;5.83;;;5.20;;
4563;SDS011;2294;51.818;8.484;2022-07-21T11:34:36;7.77;;;5.20;;
4563;SDS011;2294;51.818;8.484;2022-07-21T11:37:16;6.70;;;4.17;;
4563;SDS011;2294;51.818;8.484;2022-07-21T11:39:45;5.60;;;4.23;;
4563;SDS011;2294;51.818;8.484;2022-07-21T11:42:13;9.73;;;4.27;;
4563;SDS011;2294;51.818;8.484;2022-07-21T11:44:41;9.17;;;4.77;;
4563;SDS011;2294;51.818;8.484;2022-07-21T11:47:10;10.67;;;3.97;;
4563;SDS011;2294;51.818;8.484;2022-07-21T11:49:39;4.77;;;4.23;;
4563;SDS011;2294;51.818;8.484;2022-07-21T11:52:06;10.03;;;4.00;;
4563;SDS011;2294;51.818;8.484;2022-07-21T11:54:35;22.70;;;20.47;;
4563;SDS011;2294;51.818;8.484;2022-07-21T11:57:03;6.47;;;3.63;;
4563;SDS011;2294;51.818;8.484;2022-07-21T11:59:34;3.90;;;3.50;;
4563;SDS011;2294;51.818;8.484;2022-07-21T12:02:04;7.53;;;4.47;;
4563;SDS011;2294;51.818;8.484;2022-07-21T12:04:33;3.30;;;3.00;;
4563;SDS011;2294;51.818;8.484;2022-07-21T12:07:22;4.63;;;3.40;;
4563;SDS011;2294;51.818;8.484;2022-07-21T12:09:52;4.10;;;3.30;;
4563;SDS011;2294;51.818;8.484;2022-07-21T12:12:30;3.87;;;3.37;;
4563;SDS011;2294;51.818;8.484;2022-07-21T12:15:10;3.63;;;3.33;;
4563;SDS011;2294;51.818;8.484;2022-07-21T12:17:39;5.23;;;3.80;;
4563;SDS011;2294;51.818;8.484;2022-07-21T12:20:08;6.80;;;3.40;;
4563;SDS011;2294;51.818;8.484;2022-07-21T12:22:37;3.70;;;3.00;;
4563;SDS011;2294;51.818;8.484;2022-07-21T12:25:06;4.10;;;3.40;;
4563;SDS011;2294;51.818;8.484;2022-07-21T12:27:35;9.43;;;5.03;;
4563;SDS011;2294;51.818;8.484;2022-07-21T12:30:03;5.37;;;4.50;;
4563;SDS011;2294;51.818;8.484;2022-07-21T12:32:47;8.63;;;5.10;;
4563;SDS011;2294;51.818;8.484;2022-07-21T12:35:19;8.10;;;5.43;;
4563;SDS011;2294;51.818;8.484;2022-07-21T12:37:54;6.93;;;5.03;;
4563;SDS011;2294;51.818;8.484;2022-07-21T12:40:23;8.40;;;5.63;;
4563;SDS011;2294;51.818;8.484;2022-07-21T12:42:56;7.90;;;5.57;;
4563;SDS011;2294;51.818;8.484;2022-07-21T12:45:30;8.13;;;5.50;;
4563;SDS011;2294;51.818;8.484;2022-07-21T12:48:08;7.53;;;5.50;;
4563;SDS011;2294;51.818;8.484;2022-07-21T12:50:37;9.00;;;6.43;;
4563;SDS011;2294;51.818;8.484;2022-07-21T12:53:05;6.03;;;5.43;;
4563;SDS011;2294;51.818;8.484;2022-07-21T12:55:32;7.07;;;6.40;;
4563;SDS011;2294;51.818;8.484;2022-07-21T12:57:59;7.00;;;6.30;;
4563;SDS011;2294;51.818;8.484;2022-07-21T13:00:26;8.07;;;6.07;;
4563;SDS011;2294;51.818;8.484;2022-07-21T13:02:54;11.83;;;7.40;;
4563;SDS011;2294;51.818;8.484;2022-07-21T13:05:24;7.40;;;6.30;;
4563;SDS011;2294;51.818;8.484;2022-07-21T13:07:52;9.37;;;8.33;;
4563;SDS011;2294;51.818;8.484;2022-07-21T13:10:19;8.17;;;7.40;;
4563;SDS011;2294;51.818;8.484;2022-07-21T13:12:46;9.40;;;7.83;;
4563;SDS011;2294;51.818;8.484;2022-07-21T13:15:13;9.60;;;8.00;;
4563;SDS011;2294;51.818;8.484;2022-07-21T13:17:42;11.23;;;8.37;;
4563;SDS011;2294;51.818;8.484;2022-07-21T13:20:09;15.23;;;8.73;;
4563;SDS011;2294;51.818;8.484;2022-07-21T13:22:38;8.07;;;7.20;;
4563;SDS011;2294;51.818;8.484;2022-07-21T13:25:06;12.10;;;7.97;;
4563;SDS011;2294;51.818;8.484;2022-07-21T13:27:34;10.70;;;6.43;;
4563;SDS011;2294;51.818;8.484;2022-07-21T13:30:02;13.57;;;7.77;;
4563;SDS011;2294;51.818;8.484;2022-07-21T13:32:30;9.07;;;6.23;;
4563;SDS011;2294;51.818;8.484;2022-07-21T13:34:58;9.13;;;6.77;;
4563;SDS011;2294;51.818;8.484;2022-07-21T13:37:25;9.57;;;7.43;;
4563;SDS011;2294;51.818;8.484;2022-07-21T13:39:53;8.40;;;7.07;;
4563;SDS011;2294;51.818;8.484;2022-07-21T13:42:20;13.60;;;7.23;;
4563;SDS011;2294;51.818;8.484;2022-07-21T13:44:47;10.67;;;7.20;;
4563;SDS011;2294;51.818;8.484;2022-07-21T13:47:15;12.83;;;7.90;;
4563;SDS011;2294;51.818;8.484;2022-07-21T13:49:42;7.23;;;6.53;;
4563;SDS011;2294;51.818;8.484;2022-07-21T13:52:09;12.80;;;6.80;;
4563;SDS011;2294;51.818;8.484;2022-07-21T13:54:36;11.77;;;7.17;;
4563;SDS011;2294;51.818;8.484;2022-07-21T13:57:04;11.93;;;7.30;;
4563;SDS011;2294;51.818;8.484;2022-07-21T13:59:31;9.13;;;7.30;;
4563;SDS011;2294;51.818;8.484;2022-07-21T14:01:58;9.00;;;7.40;;
4563;SDS011;2294;51.818;8.484;2022-07-21T14:04:25;8.50;;;7.10;;
4563;SDS011;2294;51.818;8.484;2022-07-21T14:06:52;10.80;;;7.03;;
4563;SDS011;2294;51.818;8.484;2022-07-21T14:09:19;8.43;;;6.80;;
4563;SDS011;2294;51.818;8.484;2022-07-21T14:11:46;8.77;;;6.43;;
4563;SDS011;2294;51.818;8.484;2022-07-21T14:14:15;7.73;;;6.20;;
4563;SDS011;2294;51.818;8.484;2022-07-21T14:16:46;7.53;;;6.77;;
4563;SDS011;2294;51.818;8.484;2022-07-21T14:19:14;6.47;;;5.07;;
4563;SDS011;2294;51.818;8.484;2022-07-21T14:21:41;6.90;;;5.30;;
4563;SDS011;2294;51.818;8.484;2022-07-21T14:24:08;7.00;;;4.60;;
4563;SDS011;2294;51.818;8.484;2022-07-21T14:27:07;7.73;;;5.27;;
4563;SDS011;2294;51.818;8.484;2022-07-21T14:29:36;7.33;;;5.40;;
4563;SDS011;2294;51.818;8.484;2022-07-21T14:32:03;6.67;;;4.20;;
4563;SDS011;2294;51.818;8.484;2022-07-21T14:34:30;6.50;;;4.97;;
4563;SDS011;2294;51.818;8.484;2022-07-21T14:36:57;11.47;;;5.57;;
4563;SDS011;2294;51.818;8.484;2022-07-21T14:39:24;6.00;;;4.43;;
4563;SDS011;2294;51.818;8.484;2022-07-21T14:41:51;7.73;;;4.63;;
4563;SDS011;2294;51.818;8.484;2022-07-21T14:44:18;9.23;;;4.93;;
4563;SDS011;2294;51.818;8.484;2022-07-21T14:46:46;7.00;;;4.60;;
4563;SDS011;2294;51.818;8.484;2022-07-21T14:49:13;7.20;;;4.80;;
4563;SDS011;2294;51.818;8.484;2022-07-21T14:51:40;6.60;;;4.63;;
4563;SDS011;2294;51.818;8.484;2022-07-21T14:54:07;9.27;;;4.93;;
4563;SDS011;2294;51.818;8.484;2022-07-21T14:56:34;5.50;;;4.60;;
4563;SDS011;2294;51.818;8.484;2022-07-21T14:59:01;7.80;;;5.07;;
4563;SDS011;2294;51.818;8.484;2022-07-21T15:01:28;5.80;;;4.57;;
4563;SDS011;2294;51.818;8.484;2022-07-21T15:03:56;7.13;;;5.20;;
4563;SDS011;2294;51.818;8.484;2022-07-21T15:06:23;5.03;;;4.53;;
4563;SDS011;2294;51.818;8.484;2022-07-21T15:08:50;5.37;;;4.20;;
4563;SDS011;2294;51.818;8.484;2022-07-21T15:11:17;9.20;;;4.97;;
4563;SDS011;2294;51.818;8.484;2022-07-21T15:13:44;6.50;;;4.67;;
4563;SDS011;2294;51.818;8.484;2022-07-21T15:16:10;5.87;;;4.57;;
4563;SDS011;2294;51.818;8.484;2022-07-21T15:18:38;8.60;;;5.07;;
4563;SDS011;2294;51.818;8.484;2022-07-21T15:21:06;6.73;;;4.63;;
4563;SDS011;2294;51.818;8.484;2022-07-21T15:23:33;8.70;;;5.60;;
4563;SDS011;2294;51.818;8.484;2022-07-21T15:26:00;6.10;;;5.10;;